Time;durP1;ratioP1;P1;durP2;ratioP2;P2;SDS_P1;SDS_P2;PMS_P1;PMS_P2;Temp;Humidity;BMP_temperature;BMP_pressure;BME280_temperature;BME280_humidity;BME280_pressure;Samples;Min_cycle;Max_cycle;Signal;HPM_P1;HPM_P2
2024/02/18 00:00:52;;;;;;;26.83;25.13;;;;;;;-2.63;100.00;102360.59;5007783;28;20049;-78
2024/02/18 00:03:19;;;;;;;26.27;24.48;;;;;;;-2.95;100.00;102351.00;5002026;28;20050;-79
2024/02/18 00:05:52;;;;;;;27.83;26.02;;;;;;;-3.13;100.00;102350.16;5005830;28;20085;-79
2024/02/18 00:08:21;;;;;;;28.30;26.08;;;;;;;-3.40;100.00;102342.81;5004441;28;20045;-79
2024/02/18 00:10:50;;;;;;;26.67;24.88;;;;;;;-3.18;100.00;102341.75;5002194;28;20532;-79
2024/02/18 00:13:19;;;;;;;28.63;26.92;;;;;;;-3.22;100.00;102351.47;5004188;28;20065;-77
2024/02/18 00:15:46;;;;;;;26.35;24.67;;;;;;;-3.22;100.00;102346.28;5001935;28;20077;-78
2024/02/18 00:18:13;;;;;;;27.73;26.02;;;;;;;-3.26;100.00;102339.56;4990991;28;20525;-77
2024/02/18 00:20:42;;;;;;;26.92;25.23;;;;;;;-3.50;100.00;102346.81;5006679;28;20065;-79
2024/02/18 00:23:13;;;;;;;26.35;24.55;;;;;;;-3.32;100.00;102343.28;5004965;28;20141;-79
2024/02/18 00:25:43;;;;;;;26.90;25.20;;;;;;;-3.30;100.00;102345.81;5009973;28;20169;-79
2024/02/18 00:28:09;;;;;;;30.80;28.90;;;;;;;-3.44;100.00;102345.66;5008314;28;20041;-80
2024/02/18 00:30:38;;;;;;;34.30;32.17;;;;;;;-3.43;100.00;102340.38;5006403;28;20050;-79
2024/02/18 00:33:05;;;;;;;31.58;29.45;;;;;;;-3.20;100.00;102341.00;4991180;28;20050;-79
2024/02/18 00:35:32;;;;;;;31.00;28.65;;;;;;;-3.12;100.00;102346.66;5009207;28;20049;-78
2024/02/18 00:37:59;;;;;;;25.77;24.27;;;;;;;-3.16;100.00;102338.16;5009682;28;20081;-79
2024/02/18 00:41:06;;;;;;;27.50;25.88;;;;;;;-3.20;100.00;102347.03;5009332;28;20068;-77
2024/02/18 00:43:35;;;;;;;25.33;23.83;;;;;;;-3.18;100.00;102344.34;5004838;28;20121;-79
2024/02/18 00:46:04;;;;;;;29.63;27.52;;;;;;;-3.25;100.00;102343.81;4998904;28;20683;-78
2024/02/18 00:48:31;;;;;;;28.58;26.58;;;;;;;-3.32;100.00;102338.09;5010090;28;20089;-78
2024/02/18 00:50:58;;;;;;;31.58;28.92;;;;;;;-3.28;100.00;102337.00;5000362;28;20086;-78
2024/02/18 00:53:25;;;;;;;25.05;23.52;;;;;;;-3.54;100.00;102337.47;5008312;28;20137;-77
2024/02/18 00:55:52;;;;;;;26.40;24.80;;;;;;;-3.42;100.00;102331.66;5008501;28;20056;-77
2024/02/18 00:58:19;;;;;;;29.65;27.65;;;;;;;-3.69;100.00;102328.69;5008901;28;20050;-78
2024/02/18 01:00:48;;;;;;;26.08;24.27;;;;;;;-3.61;100.00;102320.50;5025598;28;20578;-78
2024/02/18 01:03:25;;;;;;;27.02;25.42;;;;;;;-3.45;100.00;102329.22;5011355;28;20063;-79
2024/02/18 01:05:55;;;;;;;25.38;23.75;;;;;;;-3.57;100.00;102328.09;5005400;28;20054;-77
2024/02/18 01:08:26;;;;;;;24.60;23.17;;;;;;;-3.63;100.00;102330.09;5005197;28;20050;-77
2024/02/18 01:10:59;;;;;;;27.83;26.10;;;;;;;-3.62;100.00;102334.41;5001640;28;20445;-78
2024/02/18 01:13:28;;;;;;;22.88;21.48;;;;;;;-3.53;100.00;102334.81;5009807;28;20058;-78
2024/02/18 01:16:07;;;;;;;25.00;23.50;;;;;;;-3.52;100.00;102335.63;5004145;28;20054;-79
2024/02/18 01:18:41;;;;;;;24.17;22.63;;;;;;;-3.63;100.00;102333.56;5005016;28;20492;-78
2024/02/18 01:21:15;;;;;;;25.85;24.35;;;;;;;-3.71;100.00;102330.50;4996793;28;20133;-79
2024/02/18 01:23:50;;;;;;;27.15;25.48;;;;;;;-3.49;100.00;102327.69;5004324;28;20116;-78
2024/02/18 01:26:19;;;;;;;24.50;22.95;;;;;;;-3.61;100.00;102328.28;5011253;28;20057;-80
2024/02/18 01:28:46;;;;;;;29.27;27.38;;;;;;;-3.61;100.00;102326.53;5005227;28;20470;-78
2024/02/18 01:31:13;;;;;;;25.25;23.73;;;;;;;-3.71;100.00;102320.94;5005164;28;20082;-78
2024/02/18 01:33:43;;;;;;;29.13;27.23;;;;;;;-3.79;100.00;102315.28;4996337;28;20050;-79
2024/02/18 01:36:12;;;;;;;24.30;22.80;;;;;;;-4.02;100.00;102313.78;5009211;28;20643;-78
2024/02/18 01:38:39;;;;;;;26.63;24.70;;;;;;;-3.94;100.00;102310.81;5009135;28;20049;-77
2024/02/18 01:41:09;;;;;;;28.45;26.42;;;;;;;-3.77;100.00;102318.66;5007505;28;20565;-77
2024/02/18 01:43:36;;;;;;;30.27;28.13;;;;;;;-3.74;100.00;102313.31;5004274;28;20054;-78
2024/02/18 01:46:03;;;;;;;27.27;25.58;;;;;;;-3.89;100.00;102311.44;4996800;28;20432;-77
2024/02/18 01:48:36;;;;;;;26.23;24.60;;;;;;;-4.03;100.00;102304.31;5008427;28;20052;-78
2024/02/18 01:51:14;;;;;;;28.83;27.02;;;;;;;-3.79;100.00;102304.88;5004893;28;20046;-79
2024/02/18 01:53:46;;;;;;;27.90;26.23;;;;;;;-3.75;100.00;102311.63;5007966;28;20080;-78
2024/02/18 01:56:17;;;;;;;29.48;27.58;;;;;;;-3.73;100.00;102304.59;4997220;28;20054;-79
2024/02/18 01:58:44;;;;;;;26.00;24.40;;;;;;;-3.52;100.00;102307.06;4999084;28;20145;-78
2024/02/18 02:01:11;;;;;;;24.90;23.25;;;;;;;-3.46;100.00;102302.41;5008249;28;20053;-78
2024/02/18 02:03:39;;;;;;;24.65;23.15;;;;;;;-3.70;100.00;102309.63;5005692;28;20058;-78
2024/02/18 02:06:13;;;;;;;28.52;25.95;;;;;;;-3.44;100.00;102307.53;5011136;28;20084;-79
2024/02/18 02:08:46;;;;;;;26.50;24.90;;;;;;;-3.20;100.00;102304.63;5010612;28;20138;-79
2024/02/18 02:11:15;;;;;;;28.88;27.02;;;;;;;-3.06;100.00;102307.34;5007715;28;20101;-78
2024/02/18 02:13:42;;;;;;;34.65;32.17;;;;;;;-3.02;100.00;102303.69;5009597;28;20054;-79
2024/02/18 02:16:19;;;;;;;34.17;31.30;;;;;;;-3.23;100.00;102310.81;5004826;28;20138;-79
2024/02/18 02:18:58;;;;;;;27.75;25.98;;;;;;;-3.28;100.00;102305.00;5008397;28;20078;-78
2024/02/18 02:21:28;;;;;;;29.95;27.90;;;;;;;-3.15;100.00;102313.00;5012085;28;20104;-77
2024/02/18 02:23:55;;;;;;;30.33;28.42;;;;;;;-3.14;100.00;102306.91;5014299;28;20116;-78
2024/02/18 02:26:34;;;;;;;31.98;29.15;;;;;;;-3.27;100.00;102311.88;5012646;28;20720;-79
2024/02/18 02:29:12;;;;;;;31.17;28.63;;;;;;;-3.07;100.00;102305.66;5003963;28;20108;-78
2024/02/18 02:31:40;;;;;;;34.30;31.48;;;;;;;-2.90;100.00;102315.22;5004127;28;20064;-78
2024/02/18 02:34:07;;;;;;;35.80;33.38;;;;;;;-2.88;100.00;102303.78;5010991;28;20145;-80
2024/02/18 02:36:36;;;;;;;30.70;28.70;;;;;;;-2.93;100.00;102304.97;5011332;28;20057;-78
2024/02/18 02:39:12;;;;;;;29.58;27.48;;;;;;;-2.86;100.00;102308.91;5005873;28;20918;-78
2024/02/18 02:41:42;;;;;;;28.40;26.52;;;;;;;-2.90;100.00;102310.84;5012070;28;20765;-78
2024/02/18 02:44:13;;;;;;;27.52;25.73;;;;;;;-2.92;100.00;102319.63;5003313;28;20058;-79
2024/02/18 02:46:42;;;;;;;32.03;29.98;;;;;;;-2.96;100.00;102318.13;5000480;28;20081;-79
2024/02/18 02:49:12;;;;;;;28.45;26.42;;;;;;;-2.92;100.00;102320.47;5008646;28;20058;-78
2024/02/18 02:51:43;;;;;;;25.75;24.05;;;;;;;-2.79;100.00;102323.28;5000687;28;20473;-78
2024/02/18 02:54:13;;;;;;;26.58;24.98;;;;;;;-2.75;100.00;102319.63;4999785;28;20054;-79
2024/02/18 02:56:41;;;;;;;29.65;27.85;;;;;;;-2.69;100.00;102327.09;5010890;28;20050;-80
2024/02/18 02:59:11;;;;;;;27.58;25.77;;;;;;;-2.77;100.00;102321.44;5002142;28;20529;-79
2024/02/18 03:01:39;;;;;;;25.60;23.98;;;;;;;-2.92;100.00;102320.47;4991829;28;20062;-81
2024/02/18 03:04:06;;;;;;;25.48;23.88;;;;;;;-3.14;100.00;102327.72;5010975;28;20053;-78
2024/02/18 03:06:33;;;;;;;27.42;25.63;;;;;;;-2.84;100.00;102333.94;5011295;28;20057;-77
2024/02/18 03:09:00;;;;;;;25.48;23.73;;;;;;;-2.74;100.00;102328.25;5008139;28;20054;-78
2024/02/18 03:11:27;;;;;;;24.52;22.73;;;;;;;-2.68;100.00;102331.38;5013068;28;20130;-78
2024/02/18 03:13:54;;;;;;;25.10;23.45;;;;;;;-2.97;100.00;102340.66;5007423;28;20046;-78
2024/02/18 03:16:21;;;;;;;24.38;22.77;;;;;;;-3.20;100.00;102338.41;4992529;28;20441;-77
2024/02/18 03:18:54;;;;;;;26.17;24.40;;;;;;;-3.18;100.00;102334.78;5003846;28;20108;-78
2024/02/18 03:21:23;;;;;;;26.10;24.40;;;;;;;-3.42;100.00;102336.00;5006515;28;20060;-78
2024/02/18 03:23:53;;;;;;;27.20;25.17;;;;;;;-3.73;100.00;102335.75;5011221;28;20046;-78
2024/02/18 03:26:20;;;;;;;27.25;25.40;;;;;;;-3.76;100.00;102335.91;5011297;28;20049;-79
2024/02/18 03:28:46;;;;;;;28.33;26.33;;;;;;;-3.67;100.00;102326.81;5002617;28;20042;-78
2024/02/18 03:31:17;;;;;;;31.88;29.55;;;;;;;-3.80;100.00;102325.75;5000502;28;20060;-77
2024/02/18 03:33:44;;;;;;;33.15;30.60;;;;;;;-3.47;100.00;102328.47;5005793;28;20050;-77
2024/02/18 03:36:13;;;;;;;27.63;25.58;;;;;;;-3.42;100.00;102333.41;5007848;28;20053;-78
2024/02/18 03:38:49;;;;;;;29.65;27.67;;;;;;;-3.50;100.00;102328.63;5011251;28;20057;-77
2024/02/18 03:41:16;;;;;;;27.00;25.30;;;;;;;-3.77;100.00;102333.38;5011205;28;20464;-78
2024/02/18 03:43:46;;;;;;;28.23;26.33;;;;;;;-3.42;100.00;102333.41;5010762;28;20045;-77
2024/02/18 03:46:12;;;;;;;27.30;25.70;;;;;;;-3.66;100.00;102328.53;5010925;28;20065;-80
2024/02/18 03:48:39;;;;;;;27.33;25.63;;;;;;;-3.52;100.00;102330.44;5010118;28;20458;-76
2024/02/18 03:51:09;;;;;;;25.75;24.05;;;;;;;-3.30;100.00;102331.06;5010724;28;20053;-77
2024/02/18 03:53:52;;;;;;;28.38;26.58;;;;;;;-3.63;100.00;102322.31;5010639;28;20509;-78
2024/02/18 03:56:19;;;;;;;29.85;27.85;;;;;;;-3.67;100.00;102331.19;4990947;28;20481;-79
2024/02/18 03:58:46;;;;;;;25.73;24.13;;;;;;;-3.76;100.00;102329.88;4993039;28;21193;-78
2024/02/18 04:01:13;;;;;;;25.73;24.23;;;;;;;-3.75;100.00;102324.63;5009860;28;20133;-77
2024/02/18 04:03:43;;;;;;;27.98;26.08;;;;;;;-3.61;100.00;102333.47;5009685;28;20060;-79
2024/02/18 04:06:10;;;;;;;30.30;28.30;;;;;;;-3.77;100.00;102334.22;5009864;28;20062;-77
2024/02/18 04:08:38;;;;;;;27.58;25.88;;;;;;;-3.60;100.00;102346.41;5028016;28;20054;-77
2024/02/18 04:11:08;;;;;;;26.08;24.48;;;;;;;-3.67;100.00;102341.56;5000548;28;20050;-79
2024/02/18 04:13:35;;;;;;;24.73;23.23;;;;;;;-3.78;100.00;102339.47;5001957;28;20050;-79
2024/02/18 04:16:03;;;;;;;24.33;22.80;;;;;;;-3.77;100.00;102342.03;5006527;28;20046;-79
2024/02/18 04:18:30;;;;;;;26.23;24.55;;;;;;;-3.90;100.00;102335.75;5005513;28;20077;-81
2024/02/18 04:20:58;;;;;;;26.77;25.08;;;;;;;-4.09;100.00;102338.34;5007918;28;20497;-77
2024/02/18 04:23:25;;;;;;;28.40;26.70;;;;;;;-4.22;100.00;102330.28;5009915;28;20056;-77
2024/02/18 04:25:54;;;;;;;29.23;27.42;;;;;;;-3.97;100.00;102342.13;5010515;28;20525;-78
2024/02/18 04:28:20;;;;;;;26.98;25.25;;;;;;;-3.89;100.00;102347.78;4997803;28;20433;-78
2024/02/18 04:30:47;;;;;;;26.30;24.40;;;;;;;-4.09;100.00;102343.53;5001718;28;20048;-77
2024/02/18 04:33:14;;;;;;;30.90;28.90;;;;;;;-4.20;100.00;102338.00;5010007;28;20057;-78
2024/02/18 04:35:48;;;;;;;32.70;30.60;;;;;;;-3.90;100.00;102346.13;5010061;28;20486;-80
2024/02/18 04:38:17;;;;;;;27.42;25.35;;;;;;;-3.86;100.00;102352.00;4995922;28;20582;-78
2024/02/18 04:40:46;;;;;;;29.52;27.75;;;;;;;-3.96;100.00;102343.81;5010996;28;20049;-77
2024/02/18 04:43:16;;;;;;;27.90;26.15;;;;;;;-3.79;100.00;102351.63;5004057;28;20054;-77
2024/02/18 04:45:56;;;;;;;26.20;24.52;;;;;;;-3.43;100.00;102357.72;4995715;28;20049;-79
2024/02/18 04:48:25;;;;;;;29.13;27.08;;;;;;;-3.37;100.00;102360.88;5013757;28;20100;-79
2024/02/18 04:50:54;;;;;;;27.20;25.50;;;;;;;-3.43;100.00;102352.53;5009759;28;20045;-79
2024/02/18 04:53:21;;;;;;;27.58;25.77;;;;;;;-3.56;100.00;102355.72;5005204;28;20047;-78
2024/02/18 04:55:53;;;;;;;26.40;24.80;;;;;;;-3.32;100.00;102361.50;4990365;28;20050;-77
2024/02/18 04:58:22;;;;;;;27.85;26.25;;;;;;;-3.01;100.00;102359.94;4992304;28;20046;-78
2024/02/18 05:01:05;;;;;;;24.25;22.75;;;;;;;-3.05;100.00;102363.63;5007208;28;20163;-78
2024/02/18 05:03:34;;;;;;;24.83;23.23;;;;;;;-3.07;100.00;102363.69;5007481;28;20509;-76
2024/02/18 05:06:03;;;;;;;25.00;23.35;;;;;;;-3.10;100.00;102374.25;5006939;28;20073;-78
2024/02/18 05:08:30;;;;;;;22.50;21.10;;;;;;;-3.26;100.00;102361.19;4996802;28;20134;-78
2024/02/18 05:10:59;;;;;;;24.13;22.00;;;;;;;-3.31;100.00;102364.91;5005206;28;20125;-77
2024/02/18 05:13:30;;;;;;;21.05;19.65;;;;;;;-3.11;100.00;102375.19;4991597;28;20051;-77
2024/02/18 05:16:10;;;;;;;23.20;21.70;;;;;;;-3.18;100.00;102375.53;4990433;28;20057;-77
2024/02/18 05:18:40;;;;;;;21.10;19.80;;;;;;;-3.43;100.00;102368.97;4995031;28;20053;-78
2024/02/18 05:21:19;;;;;;;20.67;19.33;;;;;;;-3.33;100.00;102367.63;4997703;28;20054;-78
2024/02/18 05:23:57;;;;;;;21.95;20.55;;;;;;;-3.33;100.00;102364.16;5003481;28;20498;-79
2024/02/18 05:26:25;;;;;;;22.05;20.58;;;;;;;-3.51;100.00;102377.13;5009856;28;20073;-77
2024/02/18 05:29:02;;;;;;;21.60;20.27;;;;;;;-3.36;100.00;102370.34;5009454;28;20115;-78
2024/02/18 05:31:29;;;;;;;20.77;19.42;;;;;;;-3.39;100.00;102377.44;5005911;28;20154;-77
2024/02/18 05:34:11;;;;;;;19.83;18.63;;;;;;;-3.46;100.00;102382.09;5006039;28;20050;-78
2024/02/18 05:36:41;;;;;;;22.42;20.80;;;;;;;-3.23;100.00;102394.81;5004586;28;20073;-77
2024/02/18 05:39:11;;;;;;;22.42;21.02;;;;;;;-2.98;100.00;102391.00;5006963;28;20100;-78
2024/02/18 05:41:59;;;;;;;21.40;20.00;;;;;;;-2.83;100.00;102391.97;5013435;28;20050;-80
2024/02/18 05:44:28;;;;;;;22.38;20.88;;;;;;;-2.60;100.00;102402.06;5010462;28;20054;-78
2024/02/18 05:46:55;;;;;;;20.98;19.58;;;;;;;-2.47;100.00;102394.44;5013366;28;20148;-78
2024/02/18 05:49:22;;;;;;;23.80;21.88;;;;;;;-2.61;100.00;102396.91;5012265;28;20054;-79
2024/02/18 05:51:52;;;;;;;24.52;22.92;;;;;;;-2.28;100.00;102393.47;5006026;28;20058;-76
2024/02/18 05:54:23;;;;;;;25.30;23.60;;;;;;;-2.10;100.00;102400.31;5006255;28;20107;-77
2024/02/18 05:56:50;;;;;;;25.25;23.27;;;;;;;-2.20;100.00;102396.53;5013471;28;20729;-79
2024/02/18 05:59:19;;;;;;;25.17;23.58;;;;;;;-1.92;100.00;102395.88;5003825;28;20053;-78
2024/02/18 06:01:47;;;;;;;23.70;22.02;;;;;;;-1.66;100.00;102403.09;5012942;28;20045;-78
2024/02/18 06:04:20;;;;;;;26.42;24.73;;;;;;;-1.52;100.00;102394.47;5012747;28;20492;-78
2024/02/18 06:06:50;;;;;;;28.50;26.38;;;;;;;-1.44;100.00;102399.28;4967853;28;20048;-79
2024/02/18 06:09:20;;;;;;;26.08;24.35;;;;;;;-1.39;100.00;102403.31;5011889;28;20050;-78
2024/02/18 06:11:48;;;;;;;27.58;25.70;;;;;;;-1.39;100.00;102412.91;4973392;28;20052;-79
2024/02/18 06:14:19;;;;;;;25.88;24.17;;;;;;;-1.09;100.00;102419.88;5022449;28;20108;-78
2024/02/18 06:16:47;;;;;;;25.87;24.17;;;;;;;-0.96;100.00;102419.09;4661624;28;10000143;-79
2024/02/18 06:19:14;;;;;;;28.98;26.88;;;;;;;-0.87;100.00;102407.28;5001947;28;20064;-79
2024/02/18 06:21:49;;;;;;;35.75;32.70;;;;;;;-0.80;100.00;102408.59;5008757;28;20050;-79
2024/02/18 06:24:16;;;;;;;31.35;29.02;;;;;;;-0.56;100.00;102408.91;5010706;28;20072;-78
2024/02/18 06:26:48;;;;;;;36.25;32.55;;;;;;;-0.38;100.00;102411.34;5009344;28;20108;-78
2024/02/18 06:29:15;;;;;;;32.38;29.80;;;;;;;-0.25;100.00;102404.44;5011224;28;20504;-78
2024/02/18 06:31:42;;;;;;;27.85;26.05;;;;;;;-0.26;100.00;102411.44;5003769;28;20480;-77
2024/02/18 06:34:13;;;;;;;29.52;27.42;;;;;;;0.06;100.00;102405.13;5006851;28;20668;-77
2024/02/18 06:36:42;;;;;;;30.17;28.15;;;;;;;0.08;100.00;102411.94;5011952;28;20049;-78
2024/02/18 06:39:12;;;;;;;33.13;30.65;;;;;;;0.25;100.00;102413.50;5005059;28;20061;-78
2024/02/18 06:41:39;;;;;;;31.00;28.70;;;;;;;0.34;100.00;102406.88;5004210;28;20042;-77
2024/02/18 06:44:14;;;;;;;30.00;27.92;;;;;;;0.31;100.00;102415.72;5007808;28;20056;-77
2024/02/18 06:46:41;;;;;;;30.40;27.98;;;;;;;0.78;100.00;102430.13;5011494;28;20057;-78
2024/02/18 06:49:08;;;;;;;30.92;28.80;;;;;;;0.81;100.00;102432.53;5009652;28;20061;-78
2024/02/18 06:51:37;;;;;;;30.42;28.23;;;;;;;0.98;100.00;102426.22;5004026;28;20046;-78
2024/02/18 06:54:06;;;;;;;33.65;31.25;;;;;;;1.37;100.00;102427.94;5002007;28;20038;-77
2024/02/18 06:56:34;;;;;;;32.95;30.55;;;;;;;1.25;100.00;102435.78;5006510;28;20104;-79
2024/02/18 06:59:07;;;;;;;31.10;28.83;;;;;;;1.79;100.00;102432.97;5005975;28;20042;-80
2024/02/18 07:01:36;;;;;;;28.63;26.63;;;;;;;1.37;100.00;102429.72;5008464;28;20520;-80
2024/02/18 07:04:03;;;;;;;34.35;31.85;;;;;;;1.87;100.00;102427.16;5005606;28;20046;-79
2024/02/18 07:06:30;;;;;;;34.95;31.42;;;;;;;1.92;100.00;102441.63;5010268;28;20049;-76
2024/02/18 07:08:59;;;;;;;31.55;29.25;;;;;;;2.78;100.00;102438.09;5006841;28;20046;-78
2024/02/18 07:11:26;;;;;;;31.77;29.38;;;;;;;2.87;100.00;102445.28;5010158;28;20051;-77
2024/02/18 07:13:53;;;;;;;32.97;30.35;;;;;;;3.71;100.00;102443.31;5003013;28;20054;-78
2024/02/18 07:16:23;;;;;;;33.28;30.25;;;;;;;3.27;100.00;102441.47;5009646;28;20046;-79
2024/02/18 07:18:50;;;;;;;34.40;31.67;;;;;;;3.84;100.00;102446.69;5000384;28;20049;-79
2024/02/18 07:21:20;;;;;;;31.73;29.23;;;;;;;3.87;100.00;102437.69;5003824;28;20125;-79
2024/02/18 07:23:50;;;;;;;32.45;29.95;;;;;;;4.48;100.00;102443.38;5009848;28;20774;-79
2024/02/18 07:26:19;;;;;;;31.63;29.15;;;;;;;4.33;100.00;102448.06;5001539;28;20050;-78
2024/02/18 07:28:51;;;;;;;34.30;31.58;;;;;;;4.74;100.00;102440.41;5006689;28;20069;-79
2024/02/18 07:31:18;;;;;;;;;;;;;;;5.67;100.00;102447.56;5007050;28;20053;-79
2024/02/18 07:33:46;;;;;;;32.08;29.52;;;;;;;5.39;100.00;102451.72;5009888;28;19925;-79
2024/02/18 07:36:14;;;;;;;31.45;28.95;;;;;;;6.24;100.00;102453.22;5007038;28;20057;-78
2024/02/18 07:38:41;;;;;;;29.10;26.80;;;;;;;6.53;100.00;102450.63;5004374;28;20162;-78
2024/02/18 07:41:15;;;;;;;31.50;28.92;;;;;;;6.73;100.00;102452.31;5000314;28;20149;-78
2024/02/18 07:43:47;;;;;;;32.03;29.48;;;;;;;7.70;100.00;102453.97;5009842;28;20136;-83
2024/02/18 07:46:14;;;;;;;33.20;30.13;;;;;;;7.02;100.00;102447.03;5011615;28;20437;-81
2024/02/18 07:48:43;;;;;;;56.55;47.20;;;;;;;7.14;100.00;102446.88;5005810;28;20097;-82
2024/02/18 07:51:10;;;;;;;50.30;40.40;;;;;;;7.09;100.00;102444.66;4997275;28;20469;-81
2024/02/18 07:53:42;;;;;;;33.53;30.60;;;;;;;7.42;100.00;102450.47;5010635;28;20141;-82
2024/02/18 07:56:10;;;;;;;31.10;28.67;;;;;;;7.05;100.00;102449.41;5005095;28;20060;-82
2024/02/18 07:58:37;;;;;;;30.23;27.60;;;;;;;6.71;100.00;102451.59;5007956;28;20486;-82
2024/02/18 08:01:09;;;;;;;34.35;31.75;;;;;;;6.43;100.00;102448.81;5005067;28;20045;-81
2024/02/18 08:03:36;;;;;;;28.05;26.05;;;;;;;6.52;100.00;102438.41;5007312;28;20064;-82
2024/02/18 08:06:08;;;;;;;26.88;24.90;;;;;;;6.69;100.00;102442.16;5009450;28;20058;-81
2024/02/18 08:08:45;;;;;;;27.00;25.00;;;;;;;6.28;100.00;102441.41;5008494;28;20056;-83
2024/02/18 08:11:18;;;;;;;30.02;27.63;;;;;;;6.16;100.00;102443.31;4994322;28;20804;-81
2024/02/18 08:13:47;;;;;;;28.30;26.20;;;;;;;6.19;100.00;102440.41;5004656;28;20050;-82
2024/02/18 08:16:19;;;;;;;28.95;26.35;;;;;;;6.31;100.00;102435.88;5001812;28;20513;-77
2024/02/18 08:18:45;;;;;;;27.42;25.40;;;;;;;5.96;100.00;102429.22;5005140;28;20053;-77
2024/02/18 08:21:12;;;;;;;28.58;26.02;;;;;;;6.11;100.00;102435.84;5005173;28;20050;-75
2024/02/18 08:23:41;;;;;;;30.60;28.20;;;;;;;5.88;100.00;102437.78;5014171;28;20091;-75
2024/02/18 08:26:10;;;;;;;30.33;28.13;;;;;;;5.88;100.00;102437.78;5010081;28;20141;-76
2024/02/18 08:28:37;;;;;;;31.30;29.10;;;;;;;5.90;100.00;102438.50;4995544;28;20393;-76
2024/02/18 08:31:05;;;;;;;28.63;26.63;;;;;;;5.66;100.00;102443.25;5004715;28;20050;-78
2024/02/18 08:33:33;;;;;;;38.80;33.90;;;;;;;5.87;100.00;102436.13;5008281;28;20104;-79
2024/02/18 08:36:06;;;;;;;43.88;38.40;;;;;;;5.73;100.00;102441.75;5009891;28;20049;-80
2024/02/18 08:38:34;;;;;;;46.42;42.15;;;;;;;5.83;100.00;102444.44;4999731;28;20060;-80
2024/02/18 08:41:02;;;;;;;39.42;36.15;;;;;;;5.82;100.00;102442.78;4990647;28;20058;-76
2024/02/18 08:43:40;;;;;;;39.95;36.25;;;;;;;6.04;100.00;102445.22;5008442;28;20049;-76
2024/02/18 08:46:07;;;;;;;51.50;46.00;;;;;;;6.14;100.00;102445.25;5010591;28;20054;-77
2024/02/18 08:48:36;;;;;;;42.10;38.00;;;;;;;7.31;100.00;102452.28;5009246;28;20516;-76
2024/02/18 08:51:04;;;;;;;54.88;49.28;;;;;;;8.75;100.00;102453.56;5001470;28;20045;-77
2024/02/18 08:53:44;;;;;;;56.80;51.67;;;;;;;7.09;100.00;102455.22;5009820;28;20500;-78
2024/02/18 08:56:12;;;;;;;47.40;42.60;;;;;;;6.55;100.00;102452.16;5009985;28;20053;-79
2024/02/18 08:58:51;;;;;;;46.05;41.33;;;;;;;6.66;100.00;102453.84;5002267;28;20050;-77
2024/02/18 09:01:26;;;;;;;54.72;48.72;;;;;;;6.70;100.00;102455.22;4998564;28;20050;-76
2024/02/18 09:03:55;;;;;;;47.60;42.65;;;;;;;6.40;100.00;102464.91;5009172;28;20038;-78
2024/02/18 09:06:22;;;;;;;43.20;39.13;;;;;;;6.47;100.00;102453.81;5009476;28;20071;-79
2024/02/18 09:08:49;;;;;;;43.92;39.30;;;;;;;6.55;100.00;102451.31;5016686;28;20045;-77
2024/02/18 09:11:15;;;;;;;30.27;28.02;;;;;;;6.38;100.00;102450.19;5009415;28;20054;-77
2024/02/18 09:13:42;;;;;;;30.65;28.50;;;;;;;6.62;100.00;102457.72;5004520;28;20050;-76
2024/02/18 09:16:09;;;;;;;32.30;29.77;;;;;;;6.53;100.00;102456.72;5009062;28;20061;-77
2024/02/18 09:18:37;;;;;;;33.15;30.75;;;;;;;6.43;100.00;102462.00;5004756;28;20050;-77
2024/02/18 09:21:26;;;;;;;33.70;30.92;;;;;;;6.51;100.00;102463.97;5004262;28;20056;-77
2024/02/18 09:23:52;;;;;;;34.38;31.67;;;;;;;6.34;100.00;102468.09;5009811;28;20048;-77
2024/02/18 09:26:19;;;;;;;34.10;31.50;;;;;;;6.37;100.00;102467.00;5005710;28;20054;-76
2024/02/18 09:28:46;;;;;;;39.25;35.83;;;;;;;6.39;100.00;102465.06;5010128;28;20046;-77
2024/02/18 09:31:35;;;;;;;34.75;32.25;;;;;;;6.58;100.00;102467.72;5009488;28;20588;-77
2024/02/18 09:34:02;;;;;;;34.10;31.55;;;;;;;6.47;100.00;102467.00;4994180;28;20056;-76
2024/02/18 09:36:33;;;;;;;33.20;30.65;;;;;;;6.50;100.00;102464.91;5001369;28;20065;-83
2024/02/18 09:39:00;;;;;;;33.72;30.38;;;;;;;6.68;100.00;102462.44;5007064;28;20049;-82
2024/02/18 09:41:28;;;;;;;34.03;31.13;;;;;;;6.76;100.00;102467.88;5008718;28;20046;-77
2024/02/18 09:44:05;;;;;;;30.85;28.65;;;;;;;6.39;100.00;102471.16;5005727;28;20047;-77
2024/02/18 09:46:34;;;;;;;32.40;30.17;;;;;;;6.67;100.00;102468.72;4997013;28;20058;-77
2024/02/18 09:49:02;;;;;;;30.50;28.20;;;;;;;6.73;100.00;102464.69;4996271;28;20433;-76
2024/02/18 09:51:29;;;;;;;32.25;29.85;;;;;;;6.72;100.00;102468.28;5006046;28;20139;-76
2024/02/18 09:53:59;;;;;;;32.03;29.40;;;;;;;6.93;100.00;102463.72;5005158;28;20047;-77
2024/02/18 09:56:27;;;;;;;31.85;29.60;;;;;;;6.94;100.00;102470.66;4990427;28;20065;-77
2024/02/18 09:58:59;;;;;;;35.50;33.00;;;;;;;7.21;100.00;102461.22;4993198;28;20145;-77
2024/02/18 10:01:26;;;;;;;34.75;32.35;;;;;;;7.13;100.00;102453.13;4990094;28;20046;-77
2024/02/18 10:04:01;;;;;;;35.13;32.67;;;;;;;7.32;100.00;102455.75;5000065;28;20046;-77
2024/02/18 10:06:28;;;;;;;36.50;33.83;;;;;;;7.40;100.00;102447.94;5009819;28;20049;-81
2024/02/18 10:08:55;;;;;;;34.38;31.92;;;;;;;7.38;100.00;102431.38;5007511;28;20133;-83
2024/02/18 10:11:32;;;;;;;37.17;34.13;;;;;;;7.75;100.00;102442.00;5009465;28;20061;-82
2024/02/18 10:13:59;;;;;;;35.70;33.20;;;;;;;8.46;100.00;102432.59;5000949;28;20520;-82
2024/02/18 10:16:26;;;;;;;37.28;34.63;;;;;;;8.66;100.00;102433.28;5009802;28;20502;-82
2024/02/18 10:18:54;;;;;;;36.20;33.60;;;;;;;8.75;100.00;102434.19;5003225;28;20441;-77
2024/02/18 10:21:25;;;;;;;32.35;29.80;;;;;;;8.82;100.00;102433.44;5005899;28;20048;-83
2024/02/18 10:23:53;;;;;;;32.08;29.77;;;;;;;9.05;100.00;102435.63;5011382;28;20053;-82
2024/02/18 10:26:20;;;;;;;31.15;28.80;;;;;;;9.01;100.00;102428.94;5012890;28;20054;-77
2024/02/18 10:28:49;;;;;;;31.25;28.95;;;;;;;8.80;100.00;102431.91;5011811;28;20046;-81
2024/02/18 10:31:15;;;;;;;32.97;30.45;;;;;;;8.99;100.00;102429.09;5003035;28;20046;-83
2024/02/18 10:33:42;;;;;;;31.27;28.98;;;;;;;9.54;100.00;102428.81;5008204;28;20715;-79
2024/02/18 10:36:11;;;;;;;35.65;33.08;;;;;;;9.48;100.00;102441.88;5009637;28;20049;-77
2024/02/18 10:38:43;;;;;;;32.90;30.60;;;;;;;9.72;100.00;102433.22;5008436;28;20061;-82
2024/02/18 10:41:17;;;;;;;;;;;;;;;10.59;100.00;102436.50;5012696;28;20054;-78
2024/02/18 10:43:50;;;;;;;35.80;32.97;;;;;;;12.30;100.00;102436.16;5012309;28;19929;-76
2024/02/18 10:46:21;;;;;;;31.38;28.88;;;;;;;12.63;100.00;102427.94;5009546;28;20052;-77
2024/02/18 10:48:52;;;;;;;32.13;29.42;;;;;;;12.04;100.00;102430.28;4996998;28;20153;-76
2024/02/18 10:51:24;;;;;;;31.13;28.80;;;;;;;12.50;100.00;102417.06;5005403;28;20046;-77
2024/02/18 10:53:56;;;;;;;;;;;;;;;12.38;100.00;102427.28;5011833;28;20062;-82
2024/02/18 10:56:24;;;;;;;31.90;29.60;;;;;;;11.90;100.00;102431.88;5003272;28;19922;-83
2024/02/18 10:59:00;;;;;;;32.55;30.05;;;;;;;12.32;100.00;102428.81;4993292;28;20058;-83
2024/02/18 11:01:33;;;;;;;28.10;26.00;;;;;;;11.93;100.00;102420.06;4992990;28;20058;-79
2024/02/18 11:04:03;;;;;;;27.30;25.42;;;;;;;10.59;100.00;102413.44;5011032;28;20133;-76
2024/02/18 11:06:31;;;;;;;28.13;26.17;;;;;;;10.34;100.00;102411.72;5011483;28;20061;-81
2024/02/18 11:08:59;;;;;;;27.50;25.45;;;;;;;11.27;100.00;102411.41;4998000;28;20815;-83
2024/02/18 11:11:27;;;;;;;27.52;25.08;;;;;;;11.32;100.00;102414.41;5006121;28;20073;-83
2024/02/18 11:13:57;;;;;;;27.67;25.40;;;;;;;11.19;100.00;102407.75;5002840;28;20056;-82
2024/02/18 11:16:26;;;;;;;29.40;27.30;;;;;;;11.80;100.00;102412.56;4997685;28;20046;-77